Portada
METAR-TAF:

METAR-TAF

Aeroports :

Iași, Romania

latitud: 47-10N, longitud: 027-38E, altitud: 102 m

Observació

L'informe es va fer fa 40 minuts, a les 03:30 UTC
Vent 5 kt del Oest/Nord-Oest
Temperatura 19°C
Humitat 83%
Pressió 1019 hPa
Visibilitat 10 km o més
sense núvols per sota de 1500 mi sense presència de cumulonimbus.

METAR: LRIA 220330Z 29005KT CAVOK 19/16 Q1019

Hora: 07:10 (04:10 UTC)

Pronòstic

L'informe es va fer fa 2 hores i 10 minuts, a les 02:00 UTC
Pronòstic vàlid del 22 a les 03 UTC al 22 a les 12 UTC
Vent 4 kt amb direcció variable
Visibilitat 10 km o més
sense núvols per sota de 1500 mi sense presència de cumulonimbus.
Evolucionant progressivament
l' 22 a les 06 UTC al 22 a les 08 UTC
Vent 10 kt del Nord-Oest
Escasses núvols a una alçada de 4000 ft, Cumulonimbus.
Temporalment
l' 22 a les 08 UTC al 22 a les 12 UTC
tempesta, pluja

TAF: LRIA 220200Z 2203/2212 VRB04KT CAVOK BECMG 2206/2208 31010KT FEW040CB TEMPO 2208/2212 -TSRA

Observacions i pronòstics meteorològics de més de 4000 aeroports (METAR i TAF).

Les estacions disponibles són els punts grocs i vermells al mapa.

Posi el ratolí al punt desitjat per veure el nom de l'estació.

Feu clic per veure les observacions i els pronòstics meteorològics.

Per canviar el mapa: feu clic els botons verds amb una creu de color negre per apropar; al botó verd amb un guió per allunyar la imatge; o en les fletxes verdes per a mapes adjacents.


METAR-TAF: